sensor_id;sensor_type;location;lat;lon;timestamp;P1;durP1;ratioP1;P2;durP2;ratioP2
64387;SDS011;50709;52.648;4.764;2023-06-19T00:01:03;14.95;;;10.82;;
64387;SDS011;50709;52.648;4.764;2023-06-19T00:03:52;13.07;;;9.88;;
64387;SDS011;50709;52.648;4.764;2023-06-19T00:06:28;12.48;;;10.80;;
64387;SDS011;50709;52.648;4.764;2023-06-19T00:09:19;14.85;;;10.30;;
64387;SDS011;50709;52.648;4.764;2023-06-19T00:11:44;12.90;;;10.15;;
64387;SDS011;50709;52.648;4.764;2023-06-19T00:14:21;12.27;;;9.27;;
64387;SDS011;50709;52.648;4.764;2023-06-19T00:17:07;13.23;;;9.93;;
64387;SDS011;50709;52.648;4.764;2023-06-19T00:19:33;13.65;;;10.57;;
64387;SDS011;50709;52.648;4.764;2023-06-19T00:22:03;14.13;;;9.95;;
64387;SDS011;50709;52.648;4.764;2023-06-19T00:24:34;14.50;;;10.10;;
64387;SDS011;50709;52.648;4.764;2023-06-19T00:27:05;12.43;;;9.98;;
64387;SDS011;50709;52.648;4.764;2023-06-19T00:29:37;12.10;;;9.25;;
64387;SDS011;50709;52.648;4.764;2023-06-19T00:32:42;14.52;;;10.13;;
64387;SDS011;50709;52.648;4.764;2023-06-19T00:35:28;12.30;;;9.98;;
64387;SDS011;50709;52.648;4.764;2023-06-19T00:37:57;11.20;;;9.23;;
64387;SDS011;50709;52.648;4.764;2023-06-19T00:40:48;14.20;;;10.35;;
64387;SDS011;50709;52.648;4.764;2023-06-19T00:43:19;13.60;;;10.18;;
64387;SDS011;50709;52.648;4.764;2023-06-19T00:45:47;12.52;;;9.98;;
64387;SDS011;50709;52.648;4.764;2023-06-19T00:48:13;12.98;;;10.23;;
64387;SDS011;50709;52.648;4.764;2023-06-19T00:50:43;15.07;;;10.45;;
64387;SDS011;50709;52.648;4.764;2023-06-19T00:53:46;13.20;;;10.30;;
64387;SDS011;50709;52.648;4.764;2023-06-19T00:56:34;14.43;;;10.35;;
64387;SDS011;50709;52.648;4.764;2023-06-19T00:59:17;14.75;;;10.32;;
64387;SDS011;50709;52.648;4.764;2023-06-19T01:01:44;14.40;;;10.43;;
64387;SDS011;50709;52.648;4.764;2023-06-19T01:04:12;13.55;;;9.98;;
64387;SDS011;50709;52.648;4.764;2023-06-19T01:07:08;11.75;;;9.48;;
64387;SDS011;50709;52.648;4.764;2023-06-19T01:10:04;11.98;;;10.10;;
64387;SDS011;50709;52.648;4.764;2023-06-19T01:12:37;12.80;;;9.95;;
64387;SDS011;50709;52.648;4.764;2023-06-19T01:15:15;12.07;;;9.07;;
64387;SDS011;50709;52.648;4.764;2023-06-19T01:17:43;11.85;;;9.02;;
64387;SDS011;50709;52.648;4.764;2023-06-19T01:20:23;12.15;;;8.77;;
64387;SDS011;50709;52.648;4.764;2023-06-19T01:22:50;11.77;;;8.10;;
64387;SDS011;50709;52.648;4.764;2023-06-19T01:25:57;10.77;;;7.75;;
64387;SDS011;50709;52.648;4.764;2023-06-19T01:28:44;10.88;;;8.23;;
64387;SDS011;50709;52.648;4.764;2023-06-19T01:34:18;9.53;;;6.97;;
64387;SDS011;50709;52.648;4.764;2023-06-19T01:36:47;9.60;;;7.25;;
64387;SDS011;50709;52.648;4.764;2023-06-19T01:39:18;9.10;;;6.60;;
64387;SDS011;50709;52.648;4.764;2023-06-19T01:41:45;9.73;;;6.68;;
64387;SDS011;50709;52.648;4.764;2023-06-19T01:44:15;7.85;;;6.28;;
64387;SDS011;50709;52.648;4.764;2023-06-19T01:46:47;10.13;;;6.63;;
64387;SDS011;50709;52.648;4.764;2023-06-19T01:49:16;7.88;;;6.05;;
64387;SDS011;50709;52.648;4.764;2023-06-19T01:51:44;6.35;;;4.50;;
64387;SDS011;50709;52.648;4.764;2023-06-19T01:54:20;6.05;;;3.60;;
64387;SDS011;50709;52.648;4.764;2023-06-19T01:57:15;5.75;;;3.80;;
64387;SDS011;50709;52.648;4.764;2023-06-19T01:59:41;5.70;;;3.10;;
64387;SDS011;50709;52.648;4.764;2023-06-19T02:02:18;6.35;;;3.47;;
64387;SDS011;50709;52.648;4.764;2023-06-19T02:04:51;5.43;;;3.95;;
64387;SDS011;50709;52.648;4.764;2023-06-19T02:07:24;6.50;;;3.55;;
64387;SDS011;50709;52.648;4.764;2023-06-19T02:10:11;6.47;;;4.07;;
64387;SDS011;50709;52.648;4.764;2023-06-19T02:13:19;5.90;;;4.32;;
64387;SDS011;50709;52.648;4.764;2023-06-19T02:16:06;6.70;;;4.68;;
64387;SDS011;50709;52.648;4.764;2023-06-19T02:18:58;6.53;;;4.75;;
64387;SDS011;50709;52.648;4.764;2023-06-19T02:21:30;6.88;;;5.28;;
64387;SDS011;50709;52.648;4.764;2023-06-19T02:23:57;8.98;;;5.55;;
64387;SDS011;50709;52.648;4.764;2023-06-19T02:26:23;7.45;;;5.82;;
64387;SDS011;50709;52.648;4.764;2023-06-19T02:29:11;6.53;;;5.53;;
64387;SDS011;50709;52.648;4.764;2023-06-19T02:31:41;7.75;;;5.75;;
64387;SDS011;50709;52.648;4.764;2023-06-19T02:34:11;5.93;;;5.15;;
64387;SDS011;50709;52.648;4.764;2023-06-19T02:37:06;6.88;;;5.47;;
64387;SDS011;50709;52.648;4.764;2023-06-19T02:39:33;6.78;;;5.55;;
64387;SDS011;50709;52.648;4.764;2023-06-19T02:42:20;8.30;;;6.25;;
64387;SDS011;50709;52.648;4.764;2023-06-19T02:45:08;8.38;;;5.88;;
64387;SDS011;50709;52.648;4.764;2023-06-19T02:47:37;8.40;;;5.72;;
64387;SDS011;50709;52.648;4.764;2023-06-19T02:50:26;8.52;;;6.13;;
64387;SDS011;50709;52.648;4.764;2023-06-19T02:52:55;11.00;;;7.20;;
64387;SDS011;50709;52.648;4.764;2023-06-19T02:55:46;10.15;;;8.60;;
64387;SDS011;50709;52.648;4.764;2023-06-19T02:58:24;10.13;;;8.38;;
64387;SDS011;50709;52.648;4.764;2023-06-19T03:00:53;12.10;;;9.95;;
64387;SDS011;50709;52.648;4.764;2023-06-19T03:03:23;14.30;;;10.50;;
64387;SDS011;50709;52.648;4.764;2023-06-19T03:06:12;15.15;;;12.57;;
64387;SDS011;50709;52.648;4.764;2023-06-19T03:09:08;18.77;;;13.30;;
64387;SDS011;50709;52.648;4.764;2023-06-19T03:11:42;21.45;;;14.50;;
64387;SDS011;50709;52.648;4.764;2023-06-19T03:14:16;17.67;;;13.65;;
64387;SDS011;50709;52.648;4.764;2023-06-19T03:17:04;18.55;;;12.65;;
64387;SDS011;50709;52.648;4.764;2023-06-19T03:19:37;17.05;;;13.40;;
64387;SDS011;50709;52.648;4.764;2023-06-19T03:22:14;21.02;;;15.45;;
64387;SDS011;50709;52.648;4.764;2023-06-19T03:24:43;18.10;;;13.57;;
64387;SDS011;50709;52.648;4.764;2023-06-19T03:27:29;16.45;;;12.95;;
64387;SDS011;50709;52.648;4.764;2023-06-19T03:29:59;18.02;;;13.93;;
64387;SDS011;50709;52.648;4.764;2023-06-19T03:32:44;21.55;;;15.00;;
64387;SDS011;50709;52.648;4.764;2023-06-19T03:35:14;19.50;;;13.82;;
64387;SDS011;50709;52.648;4.764;2023-06-19T03:37:43;20.77;;;14.68;;
64387;SDS011;50709;52.648;4.764;2023-06-19T03:40:13;20.88;;;15.55;;
64387;SDS011;50709;52.648;4.764;2023-06-19T03:42:49;18.88;;;14.15;;
64387;SDS011;50709;52.648;4.764;2023-06-19T03:45:39;16.38;;;11.93;;
64387;SDS011;50709;52.648;4.764;2023-06-19T03:49:02;21.83;;;14.40;;
64387;SDS011;50709;52.648;4.764;2023-06-19T03:51:38;20.67;;;14.32;;
64387;SDS011;50709;52.648;4.764;2023-06-19T03:54:06;19.05;;;13.63;;
64387;SDS011;50709;52.648;4.764;2023-06-19T03:56:32;22.13;;;14.55;;
64387;SDS011;50709;52.648;4.764;2023-06-19T03:59:23;24.13;;;16.35;;
64387;SDS011;50709;52.648;4.764;2023-06-19T04:01:51;23.77;;;15.70;;
64387;SDS011;50709;52.648;4.764;2023-06-19T04:04:59;26.23;;;16.05;;
64387;SDS011;50709;52.648;4.764;2023-06-19T04:07:29;22.60;;;15.13;;
64387;SDS011;50709;52.648;4.764;2023-06-19T04:10:36;26.75;;;17.70;;
64387;SDS011;50709;52.648;4.764;2023-06-19T04:13:24;27.10;;;16.52;;
64387;SDS011;50709;52.648;4.764;2023-06-19T04:16:32;27.05;;;17.13;;
64387;SDS011;50709;52.648;4.764;2023-06-19T04:18:59;22.25;;;14.70;;
64387;SDS011;50709;52.648;4.764;2023-06-19T04:21:50;23.63;;;14.77;;
64387;SDS011;50709;52.648;4.764;2023-06-19T04:24:45;21.38;;;13.98;;
64387;SDS011;50709;52.648;4.764;2023-06-19T04:27:14;26.33;;;16.17;;
64387;SDS011;50709;52.648;4.764;2023-06-19T04:30:02;24.88;;;16.20;;
64387;SDS011;50709;52.648;4.764;2023-06-19T04:32:36;30.33;;;19.27;;
64387;SDS011;50709;52.648;4.764;2023-06-19T04:35:27;31.90;;;20.13;;
64387;SDS011;50709;52.648;4.764;2023-06-19T04:38:12;36.22;;;21.08;;
64387;SDS011;50709;52.648;4.764;2023-06-19T04:40:43;40.20;;;22.30;;
64387;SDS011;50709;52.648;4.764;2023-06-19T04:43:11;32.83;;;19.00;;
64387;SDS011;50709;52.648;4.764;2023-06-19T04:45:43;34.47;;;18.60;;
64387;SDS011;50709;52.648;4.764;2023-06-19T04:48:08;44.30;;;23.40;;
64387;SDS011;50709;52.648;4.764;2023-06-19T04:50:38;39.58;;;21.08;;
64387;SDS011;50709;52.648;4.764;2023-06-19T04:53:05;40.58;;;21.42;;
64387;SDS011;50709;52.648;4.764;2023-06-19T04:55:40;37.60;;;20.85;;
64387;SDS011;50709;52.648;4.764;2023-06-19T04:58:45;42.90;;;20.27;;
64387;SDS011;50709;52.648;4.764;2023-06-19T05:01:58;42.60;;;20.52;;
64387;SDS011;50709;52.648;4.764;2023-06-19T05:05:03;45.05;;;21.63;;
64387;SDS011;50709;52.648;4.764;2023-06-19T05:07:52;40.20;;;18.27;;
64387;SDS011;50709;52.648;4.764;2023-06-19T05:10:19;34.35;;;17.80;;
64387;SDS011;50709;52.648;4.764;2023-06-19T05:12:51;53.97;;;23.17;;
64387;SDS011;50709;52.648;4.764;2023-06-19T05:15:34;56.17;;;25.00;;
64387;SDS011;50709;52.648;4.764;2023-06-19T05:18:22;49.40;;;22.90;;
64387;SDS011;50709;52.648;4.764;2023-06-19T05:20:50;50.88;;;24.08;;
64387;SDS011;50709;52.648;4.764;2023-06-19T05:23:16;52.50;;;23.52;;
64387;SDS011;50709;52.648;4.764;2023-06-19T05:26:08;38.58;;;17.90;;
64387;SDS011;50709;52.648;4.764;2023-06-19T05:28:39;45.95;;;20.30;;
64387;SDS011;50709;52.648;4.764;2023-06-19T05:31:27;41.13;;;19.38;;
64387;SDS011;50709;52.648;4.764;2023-06-19T05:33:52;41.83;;;19.70;;
64387;SDS011;50709;52.648;4.764;2023-06-19T05:36:38;36.10;;;18.27;;
64387;SDS011;50709;52.648;4.764;2023-06-19T05:39:06;36.95;;;17.48;;
64387;SDS011;50709;52.648;4.764;2023-06-19T05:41:51;37.55;;;17.85;;
64387;SDS011;50709;52.648;4.764;2023-06-19T05:44:36;33.38;;;18.23;;
64387;SDS011;50709;52.648;4.764;2023-06-19T05:47:03;34.05;;;16.63;;
64387;SDS011;50709;52.648;4.764;2023-06-19T05:49:31;29.20;;;15.13;;
64387;SDS011;50709;52.648;4.764;2023-06-19T05:51:58;27.00;;;15.18;;
64387;SDS011;50709;52.648;4.764;2023-06-19T05:54:25;23.50;;;13.45;;
64387;SDS011;50709;52.648;4.764;2023-06-19T05:56:52;23.73;;;12.85;;
64387;SDS011;50709;52.648;4.764;2023-06-19T05:59:18;20.90;;;12.77;;
64387;SDS011;50709;52.648;4.764;2023-06-19T06:01:43;18.15;;;11.18;;
64387;SDS011;50709;52.648;4.764;2023-06-19T06:04:09;19.35;;;11.25;;
64387;SDS011;50709;52.648;4.764;2023-06-19T06:07:15;16.83;;;9.82;;
64387;SDS011;50709;52.648;4.764;2023-06-19T06:10:00;16.50;;;9.85;;
64387;SDS011;50709;52.648;4.764;2023-06-19T06:12:27;15.88;;;9.13;;
64387;SDS011;50709;52.648;4.764;2023-06-19T06:15:12;17.58;;;10.45;;
64387;SDS011;50709;52.648;4.764;2023-06-19T06:17:42;19.20;;;9.27;;
64387;SDS011;50709;52.648;4.764;2023-06-19T06:20:28;20.67;;;8.90;;
64387;SDS011;50709;52.648;4.764;2023-06-19T06:22:53;15.80;;;9.05;;
64387;SDS011;50709;52.648;4.764;2023-06-19T06:25:19;18.00;;;9.98;;
64387;SDS011;50709;52.648;4.764;2023-06-19T06:27:46;15.50;;;9.45;;
64387;SDS011;50709;52.648;4.764;2023-06-19T06:30:11;16.90;;;9.63;;
64387;SDS011;50709;52.648;4.764;2023-06-19T06:32:37;15.82;;;9.32;;
64387;SDS011;50709;52.648;4.764;2023-06-19T06:35:03;15.50;;;9.10;;
64387;SDS011;50709;52.648;4.764;2023-06-19T06:37:29;15.13;;;9.15;;
64387;SDS011;50709;52.648;4.764;2023-06-19T06:40:14;18.40;;;11.30;;
64387;SDS011;50709;52.648;4.764;2023-06-19T06:42:40;16.92;;;10.88;;
64387;SDS011;50709;52.648;4.764;2023-06-19T06:45:06;17.80;;;10.38;;
64387;SDS011;50709;52.648;4.764;2023-06-19T06:47:32;17.13;;;11.30;;
64387;SDS011;50709;52.648;4.764;2023-06-19T06:49:58;16.38;;;10.32;;
64387;SDS011;50709;52.648;4.764;2023-06-19T06:52:43;19.33;;;10.90;;
64387;SDS011;50709;52.648;4.764;2023-06-19T06:55:09;17.13;;;10.05;;
64387;SDS011;50709;52.648;4.764;2023-06-19T06:57:35;18.25;;;11.32;;
64387;SDS011;50709;52.648;4.764;2023-06-19T07:00:21;25.05;;;10.40;;
64387;SDS011;50709;52.648;4.764;2023-06-19T07:02:46;19.80;;;10.20;;
64387;SDS011;50709;52.648;4.764;2023-06-19T07:05:35;15.55;;;8.85;;
64387;SDS011;50709;52.648;4.764;2023-06-19T07:08:01;19.25;;;11.10;;
64387;SDS011;50709;52.648;4.764;2023-06-19T07:10:29;17.92;;;10.02;;
64387;SDS011;50709;52.648;4.764;2023-06-19T07:12:56;17.95;;;10.63;;
64387;SDS011;50709;52.648;4.764;2023-06-19T07:15:21;20.30;;;11.20;;
64387;SDS011;50709;52.648;4.764;2023-06-19T07:17:47;18.10;;;10.73;;
64387;SDS011;50709;52.648;4.764;2023-06-19T07:20:13;16.02;;;10.20;;
64387;SDS011;50709;52.648;4.764;2023-06-19T07:22:40;16.60;;;10.07;;
64387;SDS011;50709;52.648;4.764;2023-06-19T07:25:06;16.63;;;9.50;;
64387;SDS011;50709;52.648;4.764;2023-06-19T07:27:32;17.88;;;9.40;;
64387;SDS011;50709;52.648;4.764;2023-06-19T07:29:59;18.35;;;10.63;;
64387;SDS011;50709;52.648;4.764;2023-06-19T07:32:25;17.95;;;9.85;;
64387;SDS011;50709;52.648;4.764;2023-06-19T07:34:51;19.75;;;12.40;;
64387;SDS011;50709;52.648;4.764;2023-06-19T07:37:18;14.43;;;9.23;;
64387;SDS011;50709;52.648;4.764;2023-06-19T07:40:04;21.40;;;11.50;;
64387;SDS011;50709;52.648;4.764;2023-06-19T07:42:50;18.40;;;12.00;;
64387;SDS011;50709;52.648;4.764;2023-06-19T07:45:35;15.77;;;9.68;;
64387;SDS011;50709;52.648;4.764;2023-06-19T07:48:01;19.77;;;10.32;;
64387;SDS011;50709;52.648;4.764;2023-06-19T07:50:46;14.07;;;8.93;;
64387;SDS011;50709;52.648;4.764;2023-06-19T07:53:11;21.33;;;12.82;;
64387;SDS011;50709;52.648;4.764;2023-06-19T07:55:37;21.63;;;11.95;;
64387;SDS011;50709;52.648;4.764;2023-06-19T07:58:02;20.67;;;12.48;;
64387;SDS011;50709;52.648;4.764;2023-06-19T08:00:28;19.95;;;12.02;;
64387;SDS011;50709;52.648;4.764;2023-06-19T08:02:53;21.70;;;13.50;;
64387;SDS011;50709;52.648;4.764;2023-06-19T08:05:20;18.73;;;11.88;;
64387;SDS011;50709;52.648;4.764;2023-06-19T08:07:45;21.30;;;11.93;;
64387;SDS011;50709;52.648;4.764;2023-06-19T08:10:10;22.27;;;12.70;;
64387;SDS011;50709;52.648;4.764;2023-06-19T08:12:36;24.88;;;12.05;;
64387;SDS011;50709;52.648;4.764;2023-06-19T08:15:01;19.38;;;11.18;;
64387;SDS011;50709;52.648;4.764;2023-06-19T08:17:27;20.45;;;12.52;;
64387;SDS011;50709;52.648;4.764;2023-06-19T08:19:52;18.38;;;10.48;;
64387;SDS011;50709;52.648;4.764;2023-06-19T08:22:18;20.65;;;13.07;;
64387;SDS011;50709;52.648;4.764;2023-06-19T08:24:45;17.65;;;11.32;;
64387;SDS011;50709;52.648;4.764;2023-06-19T08:27:11;20.05;;;11.38;;
64387;SDS011;50709;52.648;4.764;2023-06-19T08:29:36;20.35;;;12.30;;
64387;SDS011;50709;52.648;4.764;2023-06-19T08:32:01;16.25;;;9.82;;
64387;SDS011;50709;52.648;4.764;2023-06-19T08:34:27;21.70;;;10.98;;
64387;SDS011;50709;52.648;4.764;2023-06-19T08:36:53;17.38;;;10.68;;
64387;SDS011;50709;52.648;4.764;2023-06-19T08:39:18;21.45;;;11.05;;
64387;SDS011;50709;52.648;4.764;2023-06-19T08:41:45;18.92;;;10.80;;
64387;SDS011;50709;52.648;4.764;2023-06-19T08:44:10;19.20;;;12.05;;
64387;SDS011;50709;52.648;4.764;2023-06-19T08:46:36;22.50;;;12.50;;
64387;SDS011;50709;52.648;4.764;2023-06-19T08:49:05;20.10;;;12.25;;
64387;SDS011;50709;52.648;4.764;2023-06-19T08:51:31;21.98;;;11.85;;
64387;SDS011;50709;52.648;4.764;2023-06-19T08:54:01;19.52;;;11.00;;
64387;SDS011;50709;52.648;4.764;2023-06-19T08:56:31;19.45;;;10.98;;
64387;SDS011;50709;52.648;4.764;2023-06-19T08:59:12;20.50;;;11.55;;
64387;SDS011;50709;52.648;4.764;2023-06-19T09:01:39;18.63;;;10.70;;
64387;SDS011;50709;52.648;4.764;2023-06-19T09:04:25;19.30;;;11.13;;
64387;SDS011;50709;52.648;4.764;2023-06-19T09:06:52;21.17;;;11.57;;
64387;SDS011;50709;52.648;4.764;2023-06-19T09:09:20;17.25;;;10.40;;
64387;SDS011;50709;52.648;4.764;2023-06-19T09:16:57;17.75;;;10.95;;
64387;SDS011;50709;52.648;4.764;2023-06-19T09:19:23;17.92;;;11.13;;
64387;SDS011;50709;52.648;4.764;2023-06-19T09:21:51;16.95;;;10.30;;
64387;SDS011;50709;52.648;4.764;2023-06-19T09:24:16;17.17;;;11.68;;
64387;SDS011;50709;52.648;4.764;2023-06-19T09:26:41;18.80;;;11.60;;
64387;SDS011;50709;52.648;4.764;2023-06-19T09:29:11;18.42;;;11.50;;
64387;SDS011;50709;52.648;4.764;2023-06-19T09:31:44;18.00;;;10.73;;
64387;SDS011;50709;52.648;4.764;2023-06-19T09:34:29;15.40;;;9.10;;
64387;SDS011;50709;52.648;4.764;2023-06-19T09:36:55;18.35;;;10.10;;
64387;SDS011;50709;52.648;4.764;2023-06-19T09:39:20;17.48;;;10.02;;
64387;SDS011;50709;52.648;4.764;2023-06-19T09:41:49;16.92;;;9.88;;
64387;SDS011;50709;52.648;4.764;2023-06-19T09:44:18;16.88;;;9.95;;
64387;SDS011;50709;52.648;4.764;2023-06-19T09:46:47;19.17;;;10.43;;
64387;SDS011;50709;52.648;4.764;2023-06-19T09:49:14;16.30;;;9.70;;
64387;SDS011;50709;52.648;4.764;2023-06-19T09:51:42;17.65;;;9.73;;
64387;SDS011;50709;52.648;4.764;2023-06-19T09:54:09;13.60;;;9.13;;
64387;SDS011;50709;52.648;4.764;2023-06-19T09:56:34;19.50;;;10.63;;
64387;SDS011;50709;52.648;4.764;2023-06-19T09:59:01;18.92;;;10.68;;
64387;SDS011;50709;52.648;4.764;2023-06-19T10:01:29;15.68;;;9.13;;
64387;SDS011;50709;52.648;4.764;2023-06-19T10:04:03;18.50;;;10.25;;
64387;SDS011;50709;52.648;4.764;2023-06-19T10:06:30;17.67;;;9.48;;
64387;SDS011;50709;52.648;4.764;2023-06-19T10:08:56;15.90;;;9.55;;
64387;SDS011;50709;52.648;4.764;2023-06-19T10:11:52;14.10;;;9.63;;
64387;SDS011;50709;52.648;4.764;2023-06-19T10:14:18;16.70;;;10.15;;
64387;SDS011;50709;52.648;4.764;2023-06-19T10:16:47;19.17;;;10.63;;
64387;SDS011;50709;52.648;4.764;2023-06-19T10:19:16;14.70;;;9.75;;
64387;SDS011;50709;52.648;4.764;2023-06-19T10:21:47;15.18;;;9.15;;
64387;SDS011;50709;52.648;4.764;2023-06-19T10:24:16;19.33;;;10.57;;
64387;SDS011;50709;52.648;4.764;2023-06-19T10:26:54;14.70;;;9.60;;
64387;SDS011;50709;52.648;4.764;2023-06-19T10:29:24;15.88;;;8.35;;
64387;SDS011;50709;52.648;4.764;2023-06-19T10:31:50;18.77;;;9.88;;
64387;SDS011;50709;52.648;4.764;2023-06-19T10:34:16;13.48;;;8.63;;
64387;SDS011;50709;52.648;4.764;2023-06-19T10:36:41;20.92;;;9.40;;
64387;SDS011;50709;52.648;4.764;2023-06-19T10:39:07;13.82;;;9.55;;
64387;SDS011;50709;52.648;4.764;2023-06-19T10:41:32;13.90;;;8.98;;
64387;SDS011;50709;52.648;4.764;2023-06-19T10:43:59;15.30;;;9.88;;
64387;SDS011;50709;52.648;4.764;2023-06-19T10:46:29;15.57;;;8.95;;
64387;SDS011;50709;52.648;4.764;2023-06-19T10:48:56;15.88;;;8.52;;
64387;SDS011;50709;52.648;4.764;2023-06-19T10:51:26;14.48;;;8.85;;
64387;SDS011;50709;52.648;4.764;2023-06-19T10:53:53;14.93;;;8.48;;
64387;SDS011;50709;52.648;4.764;2023-06-19T10:56:20;12.95;;;8.27;;
64387;SDS011;50709;52.648;4.764;2023-06-19T10:58:47;15.00;;;9.05;;
64387;SDS011;50709;52.648;4.764;2023-06-19T11:01:12;16.30;;;9.25;;
64387;SDS011;50709;52.648;4.764;2023-06-19T11:03:37;14.65;;;9.15;;
64387;SDS011;50709;52.648;4.764;2023-06-19T11:06:03;15.10;;;8.30;;
64387;SDS011;50709;52.648;4.764;2023-06-19T11:08:29;13.85;;;8.60;;
64387;SDS011;50709;52.648;4.764;2023-06-19T11:10:54;15.30;;;9.25;;
64387;SDS011;50709;52.648;4.764;2023-06-19T11:13:20;11.25;;;8.02;;
64387;SDS011;50709;52.648;4.764;2023-06-19T11:15:49;16.25;;;9.18;;
64387;SDS011;50709;52.648;4.764;2023-06-19T11:18:16;13.60;;;8.82;;
64387;SDS011;50709;52.648;4.764;2023-06-19T11:20:43;11.95;;;8.13;;
64387;SDS011;50709;52.648;4.764;2023-06-19T11:23:16;13.07;;;8.70;;
64387;SDS011;50709;52.648;4.764;2023-06-19T11:25:42;16.98;;;9.27;;
64387;SDS011;50709;52.648;4.764;2023-06-19T11:28:11;13.10;;;8.27;;
64387;SDS011;50709;52.648;4.764;2023-06-19T11:30:38;13.18;;;8.25;;
64387;SDS011;50709;52.648;4.764;2023-06-19T11:33:14;15.57;;;9.00;;
64387;SDS011;50709;52.648;4.764;2023-06-19T11:35:47;16.23;;;8.90;;
64387;SDS011;50709;52.648;4.764;2023-06-19T11:38:17;16.10;;;8.07;;
64387;SDS011;50709;52.648;4.764;2023-06-19T11:40:43;17.88;;;8.65;;
64387;SDS011;50709;52.648;4.764;2023-06-19T11:43:10;11.55;;;7.50;;
64387;SDS011;50709;52.648;4.764;2023-06-19T11:45:47;13.88;;;8.10;;
64387;SDS011;50709;52.648;4.764;2023-06-19T11:48:13;12.13;;;7.47;;
64387;SDS011;50709;52.648;4.764;2023-06-19T11:50:38;14.27;;;8.50;;
64387;SDS011;50709;52.648;4.764;2023-06-19T11:53:03;14.50;;;8.75;;
64387;SDS011;50709;52.648;4.764;2023-06-19T11:55:29;14.75;;;8.13;;
64387;SDS011;50709;52.648;4.764;2023-06-19T11:57:54;12.20;;;7.00;;
64387;SDS011;50709;52.648;4.764;2023-06-19T12:00:20;16.00;;;8.90;;
64387;SDS011;50709;52.648;4.764;2023-06-19T12:02:45;16.85;;;8.48;;
64387;SDS011;50709;52.648;4.764;2023-06-19T12:05:13;11.80;;;8.20;;
64387;SDS011;50709;52.648;4.764;2023-06-19T12:07:39;13.75;;;8.57;;
64387;SDS011;50709;52.648;4.764;2023-06-19T12:10:05;11.68;;;7.10;;
64387;SDS011;50709;52.648;4.764;2023-06-19T12:12:35;12.50;;;7.50;;
64387;SDS011;50709;52.648;4.764;2023-06-19T12:15:01;13.00;;;7.95;;
64387;SDS011;50709;52.648;4.764;2023-06-19T12:17:28;13.27;;;8.18;;
64387;SDS011;50709;52.648;4.764;2023-06-19T12:19:54;13.43;;;7.18;;
64387;SDS011;50709;52.648;4.764;2023-06-19T12:22:20;12.45;;;7.68;;
64387;SDS011;50709;52.648;4.764;2023-06-19T12:24:45;12.38;;;7.30;;
64387;SDS011;50709;52.648;4.764;2023-06-19T12:27:11;11.20;;;7.13;;
64387;SDS011;50709;52.648;4.764;2023-06-19T12:29:36;12.32;;;7.40;;
64387;SDS011;50709;52.648;4.764;2023-06-19T12:32:02;12.23;;;7.43;;
64387;SDS011;50709;52.648;4.764;2023-06-19T12:34:28;11.27;;;7.10;;
64387;SDS011;50709;52.648;4.764;2023-06-19T12:36:54;11.65;;;7.25;;
64387;SDS011;50709;52.648;4.764;2023-06-19T12:39:19;10.93;;;7.40;;
64387;SDS011;50709;52.648;4.764;2023-06-19T12:41:45;12.55;;;6.80;;
64387;SDS011;50709;52.648;4.764;2023-06-19T12:44:11;12.15;;;6.72;;
64387;SDS011;50709;52.648;4.764;2023-06-19T12:46:36;13.55;;;7.05;;
64387;SDS011;50709;52.648;4.764;2023-06-19T12:49:02;10.73;;;7.03;;
64387;SDS011;50709;52.648;4.764;2023-06-19T12:51:27;11.15;;;7.15;;
64387;SDS011;50709;52.648;4.764;2023-06-19T12:53:53;13.90;;;7.20;;
64387;SDS011;50709;52.648;4.764;2023-06-19T12:56:18;11.00;;;6.63;;
64387;SDS011;50709;52.648;4.764;2023-06-19T12:58:43;10.88;;;7.05;;
64387;SDS011;50709;52.648;4.764;2023-06-19T13:01:09;10.45;;;6.88;;
64387;SDS011;50709;52.648;4.764;2023-06-19T13:03:34;13.23;;;6.45;;
64387;SDS011;50709;52.648;4.764;2023-06-19T13:06:00;9.35;;;6.40;;
64387;SDS011;50709;52.648;4.764;2023-06-19T13:08:28;9.57;;;6.63;;
64387;SDS011;50709;52.648;4.764;2023-06-19T13:10:53;10.00;;;6.88;;
64387;SDS011;50709;52.648;4.764;2023-06-19T13:13:19;10.35;;;6.88;;
64387;SDS011;50709;52.648;4.764;2023-06-19T13:15:44;12.82;;;6.57;;
64387;SDS011;50709;52.648;4.764;2023-06-19T13:18:10;12.15;;;6.95;;
64387;SDS011;50709;52.648;4.764;2023-06-19T13:20:35;10.35;;;6.35;;
64387;SDS011;50709;52.648;4.764;2023-06-19T13:23:01;12.52;;;6.50;;
64387;SDS011;50709;52.648;4.764;2023-06-19T13:25:27;10.18;;;6.22;;
64387;SDS011;50709;52.648;4.764;2023-06-19T13:28:13;12.30;;;6.80;;
64387;SDS011;50709;52.648;4.764;2023-06-19T13:30:40;9.10;;;6.00;;
64387;SDS011;50709;52.648;4.764;2023-06-19T13:33:07;8.38;;;6.05;;
64387;SDS011;50709;52.648;4.764;2023-06-19T13:35:33;10.10;;;6.90;;
64387;SDS011;50709;52.648;4.764;2023-06-19T13:37:58;9.02;;;6.10;;
64387;SDS011;50709;52.648;4.764;2023-06-19T13:40:24;9.68;;;5.90;;
64387;SDS011;50709;52.648;4.764;2023-06-19T13:42:50;11.82;;;6.20;;
64387;SDS011;50709;52.648;4.764;2023-06-19T13:45:15;10.25;;;6.10;;
64387;SDS011;50709;52.648;4.764;2023-06-19T13:47:41;8.27;;;5.15;;
64387;SDS011;50709;52.648;4.764;2023-06-19T13:50:06;8.65;;;5.65;;
64387;SDS011;50709;52.648;4.764;2023-06-19T13:52:32;9.80;;;6.57;;
64387;SDS011;50709;52.648;4.764;2023-06-19T13:54:59;9.73;;;6.20;;
64387;SDS011;50709;52.648;4.764;2023-06-19T13:57:24;10.68;;;7.18;;
64387;SDS011;50709;52.648;4.764;2023-06-19T13:59:49;8.27;;;5.68;;
64387;SDS011;50709;52.648;4.764;2023-06-19T14:02:15;7.88;;;5.93;;
64387;SDS011;50709;52.648;4.764;2023-06-19T14:04:40;9.75;;;5.50;;
64387;SDS011;50709;52.648;4.764;2023-06-19T14:07:06;9.52;;;5.85;;
64387;SDS011;50709;52.648;4.764;2023-06-19T14:09:32;7.88;;;5.45;;
64387;SDS011;50709;52.648;4.764;2023-06-19T14:11:57;8.75;;;5.28;;
64387;SDS011;50709;52.648;4.764;2023-06-19T14:14:24;9.18;;;5.63;;
64387;SDS011;50709;52.648;4.764;2023-06-19T14:16:49;8.20;;;5.15;;
64387;SDS011;50709;52.648;4.764;2023-06-19T14:19:14;9.90;;;5.75;;
64387;SDS011;50709;52.648;4.764;2023-06-19T14:21:40;7.93;;;5.40;;
64387;SDS011;50709;52.648;4.764;2023-06-19T14:24:06;7.88;;;5.65;;
64387;SDS011;50709;52.648;4.764;2023-06-19T14:26:31;8.35;;;5.30;;
64387;SDS011;50709;52.648;4.764;2023-06-19T14:28:57;10.32;;;5.72;;
64387;SDS011;50709;52.648;4.764;2023-06-19T14:31:24;8.85;;;6.03;;
64387;SDS011;50709;52.648;4.764;2023-06-19T14:33:49;9.50;;;5.72;;
64387;SDS011;50709;52.648;4.764;2023-06-19T14:36:15;12.05;;;5.88;;
64387;SDS011;50709;52.648;4.764;2023-06-19T14:38:40;8.30;;;5.35;;
64387;SDS011;50709;52.648;4.764;2023-06-19T14:41:06;9.27;;;5.82;;
64387;SDS011;50709;52.648;4.764;2023-06-19T14:43:31;11.98;;;6.20;;
64387;SDS011;50709;52.648;4.764;2023-06-19T14:45:57;9.95;;;6.32;;
64387;SDS011;50709;52.648;4.764;2023-06-19T14:48:23;9.40;;;5.75;;
64387;SDS011;50709;52.648;4.764;2023-06-19T14:50:48;9.68;;;5.90;;
64387;SDS011;50709;52.648;4.764;2023-06-19T14:53:14;8.60;;;5.68;;
64387;SDS011;50709;52.648;4.764;2023-06-19T14:55:40;8.95;;;6.00;;
64387;SDS011;50709;52.648;4.764;2023-06-19T14:58:10;10.27;;;6.05;;
64387;SDS011;50709;52.648;4.764;2023-06-19T15:00:36;10.55;;;6.20;;
64387;SDS011;50709;52.648;4.764;2023-06-19T15:03:03;8.43;;;5.47;;
64387;SDS011;50709;52.648;4.764;2023-06-19T15:05:32;9.35;;;5.68;;
64387;SDS011;50709;52.648;4.764;2023-06-19T15:07:57;10.18;;;5.55;;